createdAt,value
2022-11-07T00:01:52.922Z,101009.09
2022-11-07T00:04:25.405Z,101009.66
2022-11-07T00:06:58.735Z,101011.66
2022-11-07T00:09:31.313Z,101008.49
2022-11-07T00:12:03.671Z,101003.47
2022-11-07T00:14:37.680Z,101003.78
2022-11-07T00:17:10.837Z,101010.91
2022-11-07T00:19:43.185Z,101007.61
2022-11-07T00:22:16.322Z,101008.02
2022-11-07T00:24:49.655Z,101013.31
2022-11-07T00:27:22.202Z,101006.84
2022-11-07T00:29:55.032Z,101000.78
2022-11-07T00:32:28.160Z,100997.58
2022-11-07T00:35:00.871Z,100993.70
2022-11-07T00:37:33.991Z,100991.98
2022-11-07T00:40:10.337Z,100995.48
2022-11-07T00:42:42.956Z,100994.59
2022-11-07T00:45:15.281Z,100989.37
2022-11-07T00:47:47.733Z,100988.61
2022-11-07T00:50:20.464Z,100990.61
2022-11-07T00:52:52.998Z,100982.92
2022-11-07T00:55:26.494Z,100983.77
2022-11-07T00:57:59.731Z,100985.42
2022-11-07T01:00:32.127Z,100979.14
2022-11-07T01:03:23.155Z,100980.86
2022-11-07T01:06:03.632Z,100978.16
2022-11-07T01:08:36.193Z,100977.22
2022-11-07T01:11:09.930Z,100978.94
2022-11-07T01:13:43.406Z,100968.88
2022-11-07T01:16:15.980Z,100968.98
2022-11-07T01:18:48.587Z,100968.14
2022-11-07T01:21:21.168Z,100955.10
2022-11-07T01:23:54.592Z,100966.88
2022-11-07T01:26:27.004Z,100954.63
2022-11-07T01:28:59.409Z,100955.87
2022-11-07T01:31:32.524Z,100957.13
2022-11-07T01:34:05.442Z,100955.37
2022-11-07T01:36:38.030Z,100948.72
2022-11-07T01:39:10.502Z,100944.20
2022-11-07T01:41:43.424Z,100945.27
2022-11-07T01:44:20.693Z,100944.80
2022-11-07T01:46:55.251Z,100943.05
2022-11-07T01:49:36.661Z,100939.40
2022-11-07T01:52:32.747Z,100941.30
2022-11-07T01:55:30.551Z,100936.09
2022-11-07T01:58:31.839Z,100937.05
2022-11-07T02:01:04.756Z,100924.91
2022-11-07T02:03:37.980Z,100912.86
2022-11-07T02:06:14.375Z,100913.84
2022-11-07T02:08:47.565Z,100909.88
2022-11-07T02:11:20.560Z,100917.58
2022-11-07T02:13:53.266Z,100924.64
2022-11-07T02:16:25.725Z,100912.75
2022-11-07T02:18:58.191Z,100914.85
2022-11-07T02:21:50.638Z,100904.45
2022-11-07T02:24:32.565Z,100913.23
2022-11-07T02:27:16.236Z,100908.91
2022-11-07T02:29:53.223Z,100913.43
2022-11-07T02:32:25.807Z,100903.12
2022-11-07T02:35:03.446Z,100909.78
2022-11-07T02:37:40.216Z,100914.48
2022-11-07T02:40:13.197Z,100909.45
2022-11-07T02:42:46.388Z,100915.46
2022-11-07T02:45:26.604Z,100908.60
2022-11-07T02:47:59.825Z,100912.25
2022-11-07T02:50:32.630Z,100917.56
2022-11-07T02:53:05.191Z,100917.83
2022-11-07T02:55:37.862Z,100922.16
2022-11-07T02:58:11.512Z,100918.87
2022-11-07T03:00:44.672Z,100922.42
2022-11-07T03:03:18.310Z,100916.92
2022-11-07T03:05:50.884Z,100921.37
2022-11-07T03:08:26.020Z,100926.20
2022-11-07T03:10:58.528Z,100934.83
2022-11-07T03:13:31.320Z,100932.19
2022-11-07T03:16:10.039Z,100933.03
2022-11-07T03:18:42.411Z,100935.09
2022-11-07T03:21:15.561Z,100930.84
2022-11-07T03:23:49.716Z,100924.45
2022-11-07T03:26:22.738Z,100925.64
2022-11-07T03:28:55.129Z,100924.28
2022-11-07T03:31:27.731Z,100923.30
2022-11-07T03:34:00.399Z,100918.87
2022-11-07T03:36:34.452Z,100926.38
2022-11-07T03:39:07.169Z,100912.23
2022-11-07T03:41:40.193Z,100915.30
2022-11-07T03:44:13.083Z,100906.24
2022-11-07T03:46:45.557Z,100906.45
2022-11-07T03:49:18.497Z,100902.90
2022-11-07T03:51:50.835Z,100908.30
2022-11-07T03:54:24.209Z,100904.05
2022-11-07T03:56:56.631Z,100898.41
2022-11-07T03:59:29.457Z,100895.50
2022-11-07T04:02:02.007Z,100895.41
2022-11-07T04:04:34.734Z,100897.06
2022-11-07T04:07:07.086Z,100897.06
2022-11-07T04:09:39.532Z,100897.63
2022-11-07T04:12:29.966Z,100903.31
2022-11-07T04:15:20.069Z,100892.13
2022-11-07T04:17:52.489Z,100886.45
2022-11-07T04:20:24.812Z,100885.27
2022-11-07T04:22:57.944Z,100884.28
2022-11-07T04:25:48.187Z,100882.94
2022-11-07T04:28:20.760Z,100879.48
2022-11-07T04:30:54.260Z,100875.16
2022-11-07T04:33:27.104Z,100871.69
2022-11-07T04:35:59.447Z,100876.79
2022-11-07T04:38:31.901Z,100875.44
2022-11-07T04:41:05.006Z,100877.56
2022-11-07T04:43:37.471Z,100881.92
2022-11-07T04:46:09.877Z,100881.69
2022-11-07T04:48:42.198Z,100884.28
2022-11-07T04:51:17.402Z,100887.19
2022-11-07T04:53:50.534Z,100885.47
2022-11-07T04:56:23.079Z,100894.36
2022-11-07T04:58:55.409Z,100897.42
2022-11-07T05:01:28.360Z,100899.96
2022-11-07T05:04:01.108Z,100901.78
2022-11-07T05:06:37.938Z,100904.02
2022-11-07T05:09:13.813Z,100906.11
2022-11-07T05:11:48.789Z,100909.11
2022-11-07T05:14:23.025Z,100908.44
2022-11-07T05:16:56.127Z,100908.07
2022-11-07T05:19:28.940Z,100914.22
2022-11-07T05:22:19.535Z,100912.66
2022-11-07T05:24:52.138Z,100910.84
2022-11-07T05:27:25.063Z,100913.44
2022-11-07T05:29:58.858Z,100914.59
2022-11-07T05:32:31.601Z,100916.92
2022-11-07T05:35:07.322Z,100916.92
2022-11-07T05:37:40.734Z,100918.84
2022-11-07T05:40:13.728Z,100916.81
2022-11-07T05:42:46.440Z,100920.23
2022-11-07T05:45:19.109Z,100918.87
2022-11-07T05:48:02.528Z,100927.53
2022-11-07T05:50:35.273Z,100923.10
2022-11-07T05:53:08.085Z,100925.03
2022-11-07T05:55:41.250Z,100916.17
2022-11-07T05:58:13.725Z,100918.61
2022-11-07T06:00:47.312Z,100923.20
2022-11-07T06:03:22.850Z,100932.19
2022-11-07T06:05:55.927Z,100926.01
2022-11-07T06:08:28.258Z,100927.63
2022-11-07T06:11:00.667Z,100928.20
2022-11-07T06:13:33.427Z,100927.53
2022-11-07T06:16:06.417Z,100923.47
2022-11-07T06:18:41.823Z,100924.05
2022-11-07T06:21:14.672Z,100922.13
2022-11-07T06:23:47.235Z,100924.05
2022-11-07T06:26:21.525Z,100926.55
2022-11-07T06:28:54.455Z,100935.09
2022-11-07T06:31:27.093Z,100931.34
2022-11-07T06:33:59.809Z,100938.84
2022-11-07T06:36:32.761Z,100936.44
2022-11-07T06:39:05.456Z,100938.51
2022-11-07T06:41:38.599Z,100937.80
2022-11-07T06:44:11.189Z,100939.45
2022-11-07T06:46:43.794Z,100941.58
2022-11-07T06:49:16.705Z,100945.47
2022-11-07T06:51:49.964Z,100943.74
2022-11-07T06:54:22.336Z,100938.81
2022-11-07T06:56:55.330Z,100937.93
2022-11-07T06:59:28.074Z,100944.11
2022-11-07T07:02:01.478Z,100946.98
2022-11-07T07:04:34.747Z,100948.91
2022-11-07T10:53:26.927Z,100831.26
2022-11-07T10:56:00.723Z,100837.18
2022-11-07T10:58:36.189Z,100839.65
2022-11-07T11:01:10.423Z,100832.90
2022-11-07T11:04:04.339Z,100831.18
2022-11-07T11:06:38.590Z,100829.42
2022-11-07T11:09:16.375Z,100824.19
2022-11-07T11:11:52.995Z,100823.20
2022-11-07T11:14:26.217Z,100818.17
2022-11-07T11:16:58.657Z,100821.64
2022-11-07T11:19:49.602Z,100812.93
2022-11-07T11:22:24.425Z,100814.08
2022-11-07T11:25:15.981Z,100813.70
2022-11-07T11:27:50.671Z,100815.26
2022-11-07T11:30:23.722Z,100811.78
2022-11-07T11:33:14.402Z,100815.26
2022-11-07T11:35:58.269Z,100814.55
2022-11-07T11:38:38.511Z,100803.16
2022-11-07T11:41:36.233Z,100814.06
2022-11-07T11:44:43.753Z,100807.71
2022-11-07T11:47:34.161Z,100810.58
2022-11-07T11:50:13.050Z,100799.20
2022-11-07T11:52:46.817Z,100799.71
2022-11-07T11:55:20.903Z,100800.55
2022-11-07T11:58:10.106Z,100798.63
2022-11-07T12:00:56.803Z,100795.31
2022-11-07T12:03:46.262Z,100790.20
2022-11-07T12:06:24.149Z,100805.80
2022-11-07T12:09:15.431Z,100797.44
2022-11-07T12:12:08.635Z,100791.66
2022-11-07T12:14:58.187Z,100792.80
2022-11-07T12:17:45.160Z,100785.06
2022-11-07T12:20:31.653Z,100788.53
2022-11-07T12:23:29.791Z,100780.42
2022-11-07T12:26:12.587Z,100781.56
2022-11-07T12:29:04.388Z,100780.69
2022-11-07T12:32:03.445Z,100790.05
2022-11-07T12:35:13.943Z,100779.50
2022-11-07T12:38:13.021Z,100781.32
2022-11-07T12:41:05.264Z,100781.56
2022-11-07T12:43:51.745Z,100776.80
2022-11-07T12:46:56.270Z,100775.13
2022-11-07T12:49:54.945Z,100773.83
2022-11-07T12:53:05.157Z,100763.01
2022-11-07T12:55:55.409Z,100767.57
2022-11-07T12:58:33.553Z,100769.81
2022-11-07T13:01:06.142Z,100769.02
2022-11-07T13:04:01.374Z,100764.91
2022-11-07T13:06:54.597Z,100765.67
2022-11-07T13:09:41.605Z,100767.06
2022-11-07T13:12:41.448Z,100764.03
2022-11-07T13:15:14.311Z,100755.41
2022-11-07T13:17:48.077Z,100758.08
2022-11-07T13:20:28.303Z,100760.78
2022-11-07T13:23:02.233Z,100764.10
2022-11-07T13:25:35.729Z,100758.29
2022-11-07T13:28:27.544Z,100754.74
2022-11-07T13:31:05.134Z,100753.87
2022-11-07T13:33:37.355Z,100759.60
2022-11-07T13:36:16.372Z,100761.94
2022-11-07T13:38:52.904Z,100749.98
2022-11-07T13:41:26.857Z,100752.58
2022-11-07T13:44:03.652Z,100750.86
2022-11-07T13:46:46.579Z,100753.01
2022-11-07T13:49:23.732Z,100746.83
2022-11-07T13:51:59.746Z,100748.19
2022-11-07T13:54:57.883Z,100741.42
2022-11-07T13:57:53.641Z,100737.77
2022-11-07T14:00:26.115Z,100742.09
2022-11-07T14:03:00.388Z,100740.62
2022-11-07T14:05:36.159Z,100736.58
2022-11-07T14:08:16.126Z,100740.62
2022-11-07T14:10:50.910Z,100736.58
2022-11-07T14:13:41.304Z,100743.70
2022-11-07T14:16:25.481Z,100740.27
2022-11-07T14:19:07.722Z,100740.84
2022-11-07T14:21:40.081Z,100738.36
2022-11-07T14:24:32.788Z,100736.64
2022-11-07T14:27:12.838Z,100730.83
2022-11-07T14:29:57.746Z,100735.28
2022-11-07T14:32:32.162Z,100736.48
2022-11-07T14:35:08.598Z,100733.23
2022-11-07T14:37:41.376Z,100734.42
2022-11-07T14:40:14.321Z,100735.87
2022-11-07T14:42:46.737Z,100737.45
2022-11-07T14:45:56.505Z,100746.33
2022-11-07T14:47:58.530Z,100732.56
2022-11-07T14:50:31.078Z,100740.67
2022-11-07T14:53:14.889Z,100737.81
2022-11-07T14:56:09.110Z,100743.06
2022-11-07T14:58:42.667Z,100740.84
2022-11-07T15:01:17.544Z,100744.63
2022-11-07T15:04:01.535Z,100745.82
2022-11-07T15:06:36.039Z,100747.65
2022-11-07T15:09:09.355Z,100752.69
2022-11-07T15:11:45.075Z,100752.31
2022-11-07T15:14:35.818Z,100756.27
2022-11-07T15:17:10.645Z,100757.72
2022-11-07T15:19:43.178Z,100760.02
2022-11-07T15:22:38.623Z,100763.49
2022-11-07T15:25:35.935Z,100754.41
2022-11-07T15:28:31.277Z,100774.09
2022-11-07T15:31:03.136Z,100765.21
2022-11-07T15:33:35.851Z,100763.39
2022-11-07T15:36:09.653Z,100769.16
2022-11-07T15:38:42.663Z,100764.90
2022-11-07T15:41:14.984Z,100768.38
2022-11-07T15:43:47.452Z,100766.52
2022-11-07T15:46:41.829Z,100763.70
2022-11-07T15:49:14.692Z,100766.81
2022-11-07T15:51:47.552Z,100764.00
2022-11-07T15:54:20.357Z,100764.58
2022-11-07T15:56:58.107Z,100769.88
2022-11-07T15:59:29.753Z,100772.69
2022-11-07T16:02:02.610Z,100773.16
2022-11-07T16:04:39.645Z,100778.47
2022-11-07T16:07:18.353Z,100777.11
2022-11-07T16:09:51.301Z,100777.41
2022-11-07T16:12:23.862Z,100782.52
2022-11-07T16:14:58.044Z,100776.90
2022-11-07T16:17:30.594Z,100773.98
2022-11-07T16:20:03.287Z,100778.20
2022-11-07T16:22:36.041Z,100769.61
2022-11-07T16:25:18.607Z,100775.02
2022-11-07T16:27:51.780Z,100772.05
2022-11-07T16:30:24.828Z,100774.46
2022-11-07T16:32:57.585Z,100780.48
2022-11-07T16:35:31.050Z,100779.13
2022-11-07T16:38:05.177Z,100769.56
2022-11-07T16:40:37.743Z,100768.31
2022-11-07T16:43:10.313Z,100770.52
2022-11-07T16:45:53.379Z,100771.28
2022-11-07T16:48:28.081Z,100775.18
2022-11-07T16:51:00.934Z,100772.11
2022-11-07T16:53:33.674Z,100774.41
2022-11-07T16:56:28.317Z,100769.11
2022-11-07T16:59:01.474Z,100767.07
2022-11-07T17:01:34.244Z,100758.34
2022-11-07T17:04:07.799Z,100767.23
2022-11-07T17:06:42.196Z,100757.77
2022-11-07T17:09:24.063Z,100756.89
2022-11-07T17:11:56.852Z,100759.02
2022-11-07T17:14:29.970Z,100752.63
2022-11-07T17:17:02.506Z,100754.27
2022-11-07T17:19:35.510Z,100748.46
2022-11-07T17:22:10.121Z,100743.56
2022-11-07T17:24:44.306Z,100741.55
2022-11-07T17:27:23.870Z,100746.80
2022-11-07T17:29:56.593Z,100733.13
2022-11-07T17:32:29.549Z,100738.13
2022-11-07T17:35:30.739Z,100737.19
2022-11-07T17:37:35.657Z,100735.06
2022-11-07T17:40:09.209Z,100727.94
2022-11-07T17:42:43.150Z,100732.31
2022-11-07T17:45:16.608Z,100734.86
2022-11-07T17:47:50.775Z,100730.88
2022-11-07T17:50:23.659Z,100721.41
2022-11-07T17:52:56.466Z,100724.78
2022-11-07T17:55:28.852Z,100716.86
2022-11-07T17:58:01.539Z,100723.92
2022-11-07T18:00:34.173Z,100719.50
2022-11-07T18:03:07.050Z,100719.50
2022-11-07T18:05:40.252Z,100712.59
2022-11-07T18:08:25.305Z,100714.73
2022-11-07T18:10:48.896Z,100717.75
2022-11-07T18:13:21.125Z,100717.22
2022-11-07T18:15:53.633Z,100712.03
2022-11-07T18:18:27.442Z,100710.11
2022-11-07T18:21:01.204Z,100714.30
2022-11-07T18:23:34.095Z,100714.00
2022-11-07T18:26:21.278Z,100709.84
2022-11-07T18:28:54.259Z,100711.81
2022-11-07T18:31:26.722Z,100714.11
2022-11-07T18:34:02.009Z,100713.63
2022-11-07T18:36:37.124Z,100719.91
2022-11-07T18:39:22.790Z,100722.00
2022-11-07T18:41:55.846Z,100727.36
2022-11-07T18:44:28.624Z,100724.75
2022-11-07T18:47:01.282Z,100733.28
2022-11-07T18:49:33.868Z,100731.14
2022-11-07T18:52:06.607Z,100740.14
2022-11-07T18:54:39.617Z,100742.58
2022-11-07T18:57:12.183Z,100736.30
2022-11-07T18:59:44.777Z,100751.05
2022-11-07T19:02:17.716Z,100748.96
2022-11-07T19:04:50.280Z,100750.79
2022-11-07T19:07:24.453Z,100752.75
2022-11-07T19:09:56.838Z,100752.95
2022-11-07T19:12:31.010Z,100754.89
2022-11-07T19:15:04.141Z,100757.59
2022-11-07T19:17:36.916Z,100751.20
2022-11-07T19:20:11.501Z,100764.61
2022-11-07T19:22:44.631Z,100757.86
2022-11-07T19:25:19.130Z,100758.73
2022-11-07T19:27:51.840Z,100753.54
2022-11-07T19:30:28.517Z,100745.27
2022-11-07T19:33:04.498Z,100754.16
2022-11-07T19:35:38.696Z,100749.73
2022-11-07T19:38:12.693Z,100745.31
2022-11-07T19:40:51.586Z,100742.11
2022-11-07T19:43:23.966Z,100746.27
2022-11-07T19:45:56.617Z,100753.47
2022-11-07T19:48:30.899Z,100751.81
2022-11-07T19:51:19.849Z,100747.02
2022-11-07T19:53:48.330Z,100752.94
2022-11-07T19:56:22.049Z,100753.92
2022-11-07T19:58:54.649Z,100755.09
2022-11-07T20:01:31.869Z,100753.98
2022-11-07T20:04:04.618Z,100746.90
2022-11-07T20:06:38.960Z,100752.80
2022-11-07T20:09:12.541Z,100744.43
2022-11-07T20:11:45.978Z,100744.02
2022-11-07T20:14:19.108Z,100753.00
2022-11-07T20:16:51.718Z,100749.22
2022-11-07T20:19:24.254Z,100749.22
2022-11-07T20:21:56.971Z,100746.42
2022-11-07T20:24:29.561Z,100747.50
2022-11-07T20:27:02.474Z,100749.42
2022-11-07T20:29:35.394Z,100749.08
2022-11-07T20:32:07.920Z,100747.66
2022-11-07T20:34:40.741Z,100753.15
2022-11-07T20:37:13.938Z,100754.19
2022-11-07T20:39:47.157Z,100745.25
2022-11-07T20:42:20.101Z,100741.87
2022-11-07T20:44:52.595Z,100741.59
2022-11-07T20:47:26.037Z,100744.01
2022-11-07T20:49:58.490Z,100744.53
2022-11-07T20:52:30.932Z,100746.64
2022-11-07T20:55:03.763Z,100747.44
2022-11-07T20:57:37.548Z,100742.61
2022-11-07T21:00:11.895Z,100744.15
2022-11-07T21:02:44.242Z,100748.56
2022-11-07T21:05:18.790Z,100745.87
2022-11-07T21:07:50.651Z,100743.67
2022-11-07T21:10:23.285Z,100734.06
2022-11-07T21:12:55.918Z,100742.25
2022-11-07T21:15:28.647Z,100730.86
2022-11-07T21:18:02.967Z,100731.46
2022-11-07T21:20:36.368Z,100733.47
2022-11-07T21:23:09.659Z,100729.16
2022-11-07T21:25:44.510Z,100730.50
2022-11-07T21:28:18.597Z,100734.83
2022-11-07T21:31:04.050Z,100723.77
2022-11-07T21:33:36.437Z,100731.08
2022-11-07T21:36:13.120Z,100726.84
2022-11-07T21:38:46.928Z,100724.52
2022-11-07T21:41:20.040Z,100736.09
2022-11-07T21:43:52.718Z,100736.28
2022-11-07T21:46:34.174Z,100731.92
2022-11-07T21:49:06.801Z,100732.80
2022-11-07T21:51:39.298Z,100739.73
2022-11-07T21:54:12.259Z,100733.77
2022-11-07T21:56:44.719Z,100726.56
2022-11-07T21:59:19.043Z,100738.78
2022-11-07T22:01:51.699Z,100727.79
2022-11-07T22:04:24.457Z,100731.65
2022-11-07T22:06:58.024Z,100733.00
2022-11-07T22:09:30.631Z,100721.84
2022-11-07T22:12:03.232Z,100725.48
2022-11-07T22:14:35.531Z,100720.59
2022-11-07T22:17:09.544Z,100722.41
2022-11-07T22:19:41.997Z,100727.89
2022-11-07T22:22:36.475Z,100728.17
2022-11-07T22:25:10.006Z,100725.86
2022-11-07T22:27:42.641Z,100721.34
2022-11-07T22:30:15.632Z,100720.78
2022-11-07T22:32:48.753Z,100718.09
2022-11-07T22:35:21.537Z,100715.59
2022-11-07T22:37:55.044Z,100711.05
2022-11-07T22:40:27.851Z,100718.47
2022-11-07T22:43:00.465Z,100716.84
2022-11-07T22:45:33.324Z,100710.09
2022-11-07T22:48:07.188Z,100711.82
2022-11-07T22:50:40.853Z,100713.95
2022-11-07T22:53:14.534Z,100712.98
2022-11-07T22:55:47.525Z,100714.14
2022-11-07T22:58:20.605Z,100722.22
2022-11-07T23:00:53.558Z,100714.52
2022-11-07T23:03:26.334Z,100723.19
2022-11-07T23:06:00.736Z,100719.16
2022-11-07T23:08:37.032Z,100715.08
2022-11-07T23:13:59.154Z,100717.69
2022-11-07T23:16:36.644Z,100716.23
2022-11-07T23:19:12.356Z,100715.86
2022-11-07T23:21:45.509Z,100703.93
2022-11-07T23:24:18.195Z,100693.53
2022-11-07T23:26:51.088Z,100695.38
2022-11-07T23:29:25.629Z,100692.41
2022-11-07T23:31:58.383Z,100694.13
2022-11-07T23:34:30.892Z,100681.63
2022-11-07T23:37:03.786Z,100688.36
2022-11-07T23:39:36.207Z,100693.34
2022-11-07T23:42:11.913Z,100693.94
2022-11-07T23:44:46.458Z,100699.98
2022-11-07T23:47:36.968Z,100699.70
2022-11-07T23:50:28.241Z,100714.10
2022-11-07T23:53:02.630Z,100718.92
2022-11-07T23:55:42.655Z,100713.34
2022-11-07T23:58:33.710Z,100711.59
